sensor_id;sensor_type;location;lat;lon;timestamp;P1;durP1;ratioP1;P2;durP2;ratioP2
59418;SDS011;45224;50.904;6.038;2022-07-29T00:00:56;4.15;;;1.70;;
59418;SDS011;45224;50.904;6.038;2022-07-29T00:02:27;6.73;;;1.70;;
59418;SDS011;45224;50.904;6.038;2022-07-29T00:03:57;6.60;;;1.88;;
59418;SDS011;45224;50.904;6.038;2022-07-29T00:05:28;4.23;;;1.97;;
59418;SDS011;45224;50.904;6.038;2022-07-29T00:06:58;4.70;;;1.80;;
59418;SDS011;45224;50.904;6.038;2022-07-29T00:08:29;13.27;;;2.37;;
59418;SDS011;45224;50.904;6.038;2022-07-29T00:09:59;6.22;;;1.70;;
59418;SDS011;45224;50.904;6.038;2022-07-29T00:11:30;4.47;;;2.37;;
59418;SDS011;45224;50.904;6.038;2022-07-29T00:13:00;4.33;;;1.90;;
59418;SDS011;45224;50.904;6.038;2022-07-29T00:14:31;8.98;;;1.92;;
59418;SDS011;45224;50.904;6.038;2022-07-29T00:16:02;4.50;;;1.80;;
59418;SDS011;45224;50.904;6.038;2022-07-29T00:17:32;5.80;;;1.80;;
59418;SDS011;45224;50.904;6.038;2022-07-29T00:20:34;4.33;;;1.70;;
59418;SDS011;45224;50.904;6.038;2022-07-29T00:22:04;8.57;;;2.00;;
59418;SDS011;45224;50.904;6.038;2022-07-29T00:23:35;6.27;;;1.93;;
59418;SDS011;45224;50.904;6.038;2022-07-29T00:25:06;9.60;;;2.20;;
59418;SDS011;45224;50.904;6.038;2022-07-29T00:26:37;9.52;;;2.13;;
59418;SDS011;45224;50.904;6.038;2022-07-29T00:28:08;11.67;;;2.10;;
59418;SDS011;45224;50.904;6.038;2022-07-29T00:29:38;7.43;;;2.20;;
59418;SDS011;45224;50.904;6.038;2022-07-29T00:31:09;7.40;;;2.10;;
59418;SDS011;45224;50.904;6.038;2022-07-29T00:32:39;6.70;;;2.00;;
59418;SDS011;45224;50.904;6.038;2022-07-29T00:34:10;11.63;;;2.05;;
59418;SDS011;45224;50.904;6.038;2022-07-29T00:36:00;7.55;;;2.28;;
59418;SDS011;45224;50.904;6.038;2022-07-29T00:37:31;6.83;;;1.97;;
59418;SDS011;45224;50.904;6.038;2022-07-29T00:39:01;6.87;;;1.90;;
59418;SDS011;45224;50.904;6.038;2022-07-29T00:40:32;6.93;;;2.17;;
59418;SDS011;45224;50.904;6.038;2022-07-29T00:42:03;9.43;;;2.20;;
59418;SDS011;45224;50.904;6.038;2022-07-29T00:43:34;7.28;;;2.25;;
59418;SDS011;45224;50.904;6.038;2022-07-29T00:45:05;4.03;;;1.90;;
59418;SDS011;45224;50.904;6.038;2022-07-29T00:46:35;4.82;;;2.10;;
59418;SDS011;45224;50.904;6.038;2022-07-29T00:48:06;11.00;;;2.13;;
59418;SDS011;45224;50.904;6.038;2022-07-29T00:49:39;8.90;;;2.50;;
59418;SDS011;45224;50.904;6.038;2022-07-29T00:51:10;9.13;;;2.75;;
59418;SDS011;45224;50.904;6.038;2022-07-29T00:52:41;6.88;;;2.72;;
59418;SDS011;45224;50.904;6.038;2022-07-29T00:54:12;6.65;;;2.45;;
59418;SDS011;45224;50.904;6.038;2022-07-29T00:55:43;5.57;;;2.40;;
59418;SDS011;45224;50.904;6.038;2022-07-29T00:57:13;9.03;;;2.57;;
59418;SDS011;45224;50.904;6.038;2022-07-29T00:58:44;8.02;;;2.60;;
59418;SDS011;45224;50.904;6.038;2022-07-29T01:00:19;7.97;;;3.08;;
59418;SDS011;45224;50.904;6.038;2022-07-29T01:01:52;6.22;;;2.63;;
59418;SDS011;45224;50.904;6.038;2022-07-29T01:03:23;5.57;;;2.42;;
59418;SDS011;45224;50.904;6.038;2022-07-29T01:04:54;6.83;;;2.73;;
59418;SDS011;45224;50.904;6.038;2022-07-29T01:06:27;14.65;;;2.90;;
59418;SDS011;45224;50.904;6.038;2022-07-29T01:07:57;9.02;;;3.30;;
59418;SDS011;45224;50.904;6.038;2022-07-29T01:09:29;8.68;;;3.03;;
59418;SDS011;45224;50.904;6.038;2022-07-29T01:11:02;5.70;;;2.80;;
59418;SDS011;45224;50.904;6.038;2022-07-29T01:12:33;8.82;;;2.95;;
59418;SDS011;45224;50.904;6.038;2022-07-29T01:14:05;11.15;;;2.92;;
59418;SDS011;45224;50.904;6.038;2022-07-29T01:15:49;11.05;;;2.90;;
59418;SDS011;45224;50.904;6.038;2022-07-29T01:17:32;9.20;;;3.00;;
59418;SDS011;45224;50.904;6.038;2022-07-29T01:19:17;9.18;;;2.92;;
59418;SDS011;45224;50.904;6.038;2022-07-29T01:23:00;7.82;;;2.85;;
59418;SDS011;45224;50.904;6.038;2022-07-29T01:30:37;6.80;;;2.90;;
59418;SDS011;45224;50.904;6.038;2022-07-29T01:32:12;7.65;;;2.97;;
59418;SDS011;45224;50.904;6.038;2022-07-29T01:33:45;10.30;;;2.97;;
59418;SDS011;45224;50.904;6.038;2022-07-29T01:35:22;6.15;;;2.97;;
59418;SDS011;45224;50.904;6.038;2022-07-29T01:36:57;8.35;;;3.00;;
59418;SDS011;45224;50.904;6.038;2022-07-29T01:38:58;8.13;;;3.10;;
59418;SDS011;45224;50.904;6.038;2022-07-29T01:40:35;6.45;;;3.00;;
59418;SDS011;45224;50.904;6.038;2022-07-29T01:42:30;7.18;;;3.00;;
59418;SDS011;45224;50.904;6.038;2022-07-29T01:44:10;13.10;;;2.72;;
59418;SDS011;45224;50.904;6.038;2022-07-29T01:45:46;7.60;;;3.00;;
59418;SDS011;45224;50.904;6.038;2022-07-29T01:47:23;7.68;;;3.08;;
59418;SDS011;45224;50.904;6.038;2022-07-29T01:49:06;7.93;;;3.00;;
59418;SDS011;45224;50.904;6.038;2022-07-29T01:50:52;9.10;;;3.08;;
59418;SDS011;45224;50.904;6.038;2022-07-29T01:52:31;9.65;;;3.28;;
59418;SDS011;45224;50.904;6.038;2022-07-29T01:54:14;4.82;;;2.53;;
59418;SDS011;45224;50.904;6.038;2022-07-29T01:55:56;14.10;;;3.35;;
59418;SDS011;45224;50.904;6.038;2022-07-29T01:57:30;8.55;;;3.10;;
59418;SDS011;45224;50.904;6.038;2022-07-29T01:59:04;5.05;;;2.75;;
59418;SDS011;45224;50.904;6.038;2022-07-29T02:00:37;4.90;;;2.75;;
59418;SDS011;45224;50.904;6.038;2022-07-29T02:02:10;8.38;;;3.10;;
59418;SDS011;45224;50.904;6.038;2022-07-29T02:03:45;7.53;;;2.90;;
59418;SDS011;45224;50.904;6.038;2022-07-29T02:05:17;17.73;;;2.95;;
59418;SDS011;45224;50.904;6.038;2022-07-29T02:06:51;8.25;;;3.03;;
59418;SDS011;45224;50.904;6.038;2022-07-29T02:08:24;15.23;;;3.22;;
59418;SDS011;45224;50.904;6.038;2022-07-29T02:09:56;8.68;;;2.85;;
59418;SDS011;45224;50.904;6.038;2022-07-29T02:11:29;14.65;;;3.10;;
59418;SDS011;45224;50.904;6.038;2022-07-29T02:13:03;8.90;;;3.10;;
59418;SDS011;45224;50.904;6.038;2022-07-29T02:14:39;8.73;;;2.78;;
59418;SDS011;45224;50.904;6.038;2022-07-29T02:16:14;7.32;;;2.90;;
59418;SDS011;45224;50.904;6.038;2022-07-29T02:17:49;7.13;;;2.67;;
59418;SDS011;45224;50.904;6.038;2022-07-29T02:19:26;10.65;;;3.00;;
59418;SDS011;45224;50.904;6.038;2022-07-29T02:20:59;8.82;;;3.15;;
59418;SDS011;45224;50.904;6.038;2022-07-29T02:22:31;6.55;;;3.03;;
59418;SDS011;45224;50.904;6.038;2022-07-29T02:24:05;5.45;;;2.97;;
59418;SDS011;45224;50.904;6.038;2022-07-29T02:25:37;6.70;;;2.65;;
59418;SDS011;45224;50.904;6.038;2022-07-29T02:27:08;7.13;;;3.17;;
59418;SDS011;45224;50.904;6.038;2022-07-29T02:28:40;9.82;;;3.03;;
59418;SDS011;45224;50.904;6.038;2022-07-29T02:30:11;6.80;;;3.47;;
59418;SDS011;45224;50.904;6.038;2022-07-29T02:31:42;9.23;;;2.90;;
59418;SDS011;45224;50.904;6.038;2022-07-29T02:33:15;6.10;;;2.55;;
59418;SDS011;45224;50.904;6.038;2022-07-29T02:34:47;7.40;;;2.88;;
59418;SDS011;45224;50.904;6.038;2022-07-29T02:36:21;4.60;;;3.03;;
59418;SDS011;45224;50.904;6.038;2022-07-29T02:37:53;9.05;;;2.78;;
59418;SDS011;45224;50.904;6.038;2022-07-29T02:40:02;8.43;;;3.28;;
59418;SDS011;45224;50.904;6.038;2022-07-29T02:41:43;11.45;;;3.40;;
59418;SDS011;45224;50.904;6.038;2022-07-29T02:43:16;7.55;;;3.47;;
59418;SDS011;45224;50.904;6.038;2022-07-29T02:44:49;6.65;;;3.08;;
59418;SDS011;45224;50.904;6.038;2022-07-29T02:46:22;8.82;;;3.30;;
59418;SDS011;45224;50.904;6.038;2022-07-29T02:47:59;13.27;;;2.80;;
59418;SDS011;45224;50.904;6.038;2022-07-29T02:49:35;8.80;;;2.80;;
59418;SDS011;45224;50.904;6.038;2022-07-29T02:51:11;8.88;;;3.13;;
59418;SDS011;45224;50.904;6.038;2022-07-29T02:52:57;6.68;;;3.15;;
59418;SDS011;45224;50.904;6.038;2022-07-29T02:54:44;11.23;;;3.10;;
59418;SDS011;45224;50.904;6.038;2022-07-29T02:56:20;12.38;;;4.00;;
59418;SDS011;45224;50.904;6.038;2022-07-29T03:00:06;17.90;;;4.80;;
59418;SDS011;45224;50.904;6.038;2022-07-29T03:01:39;13.02;;;4.00;;
59418;SDS011;45224;50.904;6.038;2022-07-29T03:03:12;18.40;;;3.70;;
59418;SDS011;45224;50.904;6.038;2022-07-29T03:04:45;8.98;;;3.47;;
59418;SDS011;45224;50.904;6.038;2022-07-29T03:06:19;10.80;;;3.42;;
59418;SDS011;45224;50.904;6.038;2022-07-29T03:07:55;9.80;;;3.25;;
59418;SDS011;45224;50.904;6.038;2022-07-29T03:09:28;10.88;;;2.97;;
59418;SDS011;45224;50.904;6.038;2022-07-29T03:11:00;6.18;;;2.90;;
59418;SDS011;45224;50.904;6.038;2022-07-29T03:12:31;13.05;;;3.35;;
59418;SDS011;45224;50.904;6.038;2022-07-29T03:14:02;4.93;;;2.92;;
59418;SDS011;45224;50.904;6.038;2022-07-29T03:15:35;7.75;;;3.30;;
59418;SDS011;45224;50.904;6.038;2022-07-29T03:17:07;10.48;;;3.05;;
59418;SDS011;45224;50.904;6.038;2022-07-29T03:18:39;10.20;;;3.33;;
59418;SDS011;45224;50.904;6.038;2022-07-29T03:20:11;9.88;;;3.25;;
59418;SDS011;45224;50.904;6.038;2022-07-29T03:21:43;6.20;;;2.92;;
59418;SDS011;45224;50.904;6.038;2022-07-29T03:23:18;8.47;;;3.63;;
59418;SDS011;45224;50.904;6.038;2022-07-29T03:24:50;10.73;;;3.00;;
59418;SDS011;45224;50.904;6.038;2022-07-29T03:26:20;9.10;;;3.40;;
59418;SDS011;45224;50.904;6.038;2022-07-29T03:27:50;19.37;;;3.33;;
59418;SDS011;45224;50.904;6.038;2022-07-29T03:29:21;8.02;;;3.00;;
59418;SDS011;45224;50.904;6.038;2022-07-29T03:30:52;5.93;;;3.20;;
59418;SDS011;45224;50.904;6.038;2022-07-29T03:32:23;7.82;;;3.38;;
59418;SDS011;45224;50.904;6.038;2022-07-29T03:33:53;10.20;;;3.50;;
59418;SDS011;45224;50.904;6.038;2022-07-29T03:35:24;9.83;;;3.37;;
59418;SDS011;45224;50.904;6.038;2022-07-29T03:36:54;9.18;;;3.83;;
59418;SDS011;45224;50.904;6.038;2022-07-29T03:38:26;9.30;;;3.50;;
59418;SDS011;45224;50.904;6.038;2022-07-29T03:40:00;8.90;;;3.17;;
59418;SDS011;45224;50.904;6.038;2022-07-29T03:41:33;9.00;;;2.90;;
59418;SDS011;45224;50.904;6.038;2022-07-29T03:43:05;8.90;;;3.47;;
59418;SDS011;45224;50.904;6.038;2022-07-29T03:44:40;8.88;;;3.60;;
59418;SDS011;45224;50.904;6.038;2022-07-29T03:46:14;8.07;;;3.28;;
59418;SDS011;45224;50.904;6.038;2022-07-29T03:47:51;9.13;;;3.47;;
59418;SDS011;45224;50.904;6.038;2022-07-29T03:49:27;9.25;;;3.45;;
59418;SDS011;45224;50.904;6.038;2022-07-29T03:50:57;5.68;;;3.22;;
59418;SDS011;45224;50.904;6.038;2022-07-29T03:52:28;8.43;;;3.33;;
59418;SDS011;45224;50.904;6.038;2022-07-29T03:54:00;11.00;;;3.78;;
59418;SDS011;45224;50.904;6.038;2022-07-29T03:55:32;9.02;;;2.95;;
59418;SDS011;45224;50.904;6.038;2022-07-29T03:57:12;9.07;;;3.47;;
59418;SDS011;45224;50.904;6.038;2022-07-29T03:58:44;8.55;;;3.10;;
59418;SDS011;45224;50.904;6.038;2022-07-29T04:00:15;8.07;;;2.92;;
59418;SDS011;45224;50.904;6.038;2022-07-29T04:01:46;9.15;;;3.38;;
59418;SDS011;45224;50.904;6.038;2022-07-29T04:03:18;7.47;;;3.55;;
59418;SDS011;45224;50.904;6.038;2022-07-29T04:04:49;7.53;;;3.00;;
59418;SDS011;45224;50.904;6.038;2022-07-29T04:06:20;8.82;;;3.25;;
59418;SDS011;45224;50.904;6.038;2022-07-29T04:07:50;6.90;;;3.07;;
59418;SDS011;45224;50.904;6.038;2022-07-29T04:09:20;5.53;;;2.93;;
59418;SDS011;45224;50.904;6.038;2022-07-29T04:10:51;8.43;;;3.23;;
59418;SDS011;45224;50.904;6.038;2022-07-29T04:12:22;8.90;;;3.22;;
59418;SDS011;45224;50.904;6.038;2022-07-29T04:13:52;10.90;;;3.50;;
59418;SDS011;45224;50.904;6.038;2022-07-29T04:15:23;11.87;;;3.60;;
59418;SDS011;45224;50.904;6.038;2022-07-29T04:16:53;10.18;;;3.45;;
59418;SDS011;45224;50.904;6.038;2022-07-29T04:18:24;11.10;;;3.80;;
59418;SDS011;45224;50.904;6.038;2022-07-29T04:19:55;5.93;;;3.40;;
59418;SDS011;45224;50.904;6.038;2022-07-29T04:21:25;16.10;;;3.90;;
59418;SDS011;45224;50.904;6.038;2022-07-29T04:22:56;4.43;;;3.20;;
59418;SDS011;45224;50.904;6.038;2022-07-29T04:24:26;7.95;;;3.05;;
59418;SDS011;45224;50.904;6.038;2022-07-29T04:27:28;9.83;;;3.53;;
59418;SDS011;45224;50.904;6.038;2022-07-29T04:28:58;8.97;;;3.50;;
59418;SDS011;45224;50.904;6.038;2022-07-29T04:30:29;9.02;;;4.00;;
59418;SDS011;45224;50.904;6.038;2022-07-29T04:32:01;8.52;;;3.15;;
59418;SDS011;45224;50.904;6.038;2022-07-29T04:33:31;12.53;;;3.60;;
59418;SDS011;45224;50.904;6.038;2022-07-29T04:35:01;7.83;;;3.20;;
59418;SDS011;45224;50.904;6.038;2022-07-29T04:36:32;8.23;;;3.45;;
59418;SDS011;45224;50.904;6.038;2022-07-29T04:38:03;7.20;;;3.43;;
59418;SDS011;45224;50.904;6.038;2022-07-29T04:39:34;10.63;;;3.50;;
59418;SDS011;45224;50.904;6.038;2022-07-29T04:41:05;8.73;;;3.33;;
59418;SDS011;45224;50.904;6.038;2022-07-29T04:42:37;10.55;;;3.58;;
59418;SDS011;45224;50.904;6.038;2022-07-29T04:44:08;10.00;;;3.63;;
59418;SDS011;45224;50.904;6.038;2022-07-29T04:45:38;13.43;;;4.00;;
59418;SDS011;45224;50.904;6.038;2022-07-29T04:47:08;24.43;;;4.53;;
59418;SDS011;45224;50.904;6.038;2022-07-29T04:48:39;11.67;;;3.40;;
59418;SDS011;45224;50.904;6.038;2022-07-29T04:50:09;15.43;;;4.13;;
59418;SDS011;45224;50.904;6.038;2022-07-29T04:51:40;12.10;;;3.60;;
59418;SDS011;45224;50.904;6.038;2022-07-29T04:53:10;13.20;;;3.93;;
59418;SDS011;45224;50.904;6.038;2022-07-29T04:54:41;15.67;;;3.90;;
59418;SDS011;45224;50.904;6.038;2022-07-29T04:56:11;10.93;;;3.80;;
59418;SDS011;45224;50.904;6.038;2022-07-29T04:57:41;16.17;;;3.80;;
59418;SDS011;45224;50.904;6.038;2022-07-29T04:59:12;11.63;;;3.50;;
59418;SDS011;45224;50.904;6.038;2022-07-29T05:00:42;8.07;;;3.70;;
59418;SDS011;45224;50.904;6.038;2022-07-29T05:02:13;11.10;;;3.47;;
59418;SDS011;45224;50.904;6.038;2022-07-29T05:03:44;7.10;;;3.77;;
59418;SDS011;45224;50.904;6.038;2022-07-29T05:05:15;16.63;;;3.58;;
59418;SDS011;45224;50.904;6.038;2022-07-29T05:06:45;13.27;;;3.83;;
59418;SDS011;45224;50.904;6.038;2022-07-29T05:08:16;6.80;;;3.60;;
59418;SDS011;45224;50.904;6.038;2022-07-29T05:09:46;12.47;;;3.40;;
59418;SDS011;45224;50.904;6.038;2022-07-29T05:11:17;17.00;;;3.90;;
59418;SDS011;45224;50.904;6.038;2022-07-29T05:12:47;13.70;;;3.93;;
59418;SDS011;45224;50.904;6.038;2022-07-29T05:14:18;9.45;;;3.50;;
59418;SDS011;45224;50.904;6.038;2022-07-29T05:15:48;9.83;;;3.47;;
59418;SDS011;45224;50.904;6.038;2022-07-29T05:17:19;12.75;;;3.72;;
59418;SDS011;45224;50.904;6.038;2022-07-29T05:18:49;8.67;;;3.57;;
59418;SDS011;45224;50.904;6.038;2022-07-29T05:20:20;10.00;;;3.47;;
59418;SDS011;45224;50.904;6.038;2022-07-29T05:21:56;10.43;;;3.50;;
59418;SDS011;45224;50.904;6.038;2022-07-29T05:23:26;8.27;;;3.60;;
59418;SDS011;45224;50.904;6.038;2022-07-29T05:24:56;12.77;;;3.67;;
59418;SDS011;45224;50.904;6.038;2022-07-29T05:26:27;13.93;;;3.57;;
59418;SDS011;45224;50.904;6.038;2022-07-29T05:27:58;9.82;;;3.42;;
59418;SDS011;45224;50.904;6.038;2022-07-29T05:29:29;8.50;;;3.80;;
59418;SDS011;45224;50.904;6.038;2022-07-29T05:30:59;16.60;;;6.17;;
59418;SDS011;45224;50.904;6.038;2022-07-29T05:32:29;19.67;;;8.17;;
59418;SDS011;45224;50.904;6.038;2022-07-29T05:34:00;16.20;;;5.50;;
59418;SDS011;45224;50.904;6.038;2022-07-29T05:35:30;8.82;;;4.13;;
59418;SDS011;45224;50.904;6.038;2022-07-29T05:37:01;10.40;;;4.17;;
59418;SDS011;45224;50.904;6.038;2022-07-29T05:38:31;9.40;;;3.63;;
59418;SDS011;45224;50.904;6.038;2022-07-29T05:40:02;13.77;;;4.43;;
59418;SDS011;45224;50.904;6.038;2022-07-29T05:43:04;23.17;;;7.07;;
59418;SDS011;45224;50.904;6.038;2022-07-29T05:44:37;7.87;;;3.97;;
59418;SDS011;45224;50.904;6.038;2022-07-29T05:46:10;10.40;;;3.70;;
59418;SDS011;45224;50.904;6.038;2022-07-29T05:47:40;12.30;;;4.18;;
59418;SDS011;45224;50.904;6.038;2022-07-29T05:49:10;12.87;;;4.07;;
59418;SDS011;45224;50.904;6.038;2022-07-29T05:50:42;16.58;;;4.20;;
59418;SDS011;45224;50.904;6.038;2022-07-29T05:52:18;11.02;;;3.80;;
59418;SDS011;45224;50.904;6.038;2022-07-29T05:53:48;14.20;;;3.70;;
59418;SDS011;45224;50.904;6.038;2022-07-29T05:55:19;14.87;;;4.33;;
59418;SDS011;45224;50.904;6.038;2022-07-29T05:56:49;11.87;;;4.07;;
59418;SDS011;45224;50.904;6.038;2022-07-29T05:58:20;22.33;;;4.60;;
59418;SDS011;45224;50.904;6.038;2022-07-29T05:59:50;15.23;;;4.38;;
59418;SDS011;45224;50.904;6.038;2022-07-29T06:01:21;14.10;;;4.05;;
59418;SDS011;45224;50.904;6.038;2022-07-29T06:02:52;12.73;;;3.33;;
59418;SDS011;45224;50.904;6.038;2022-07-29T06:04:22;8.30;;;3.63;;
59418;SDS011;45224;50.904;6.038;2022-07-29T06:05:53;12.77;;;3.97;;
59418;SDS011;45224;50.904;6.038;2022-07-29T06:07:23;11.53;;;3.90;;
59418;SDS011;45224;50.904;6.038;2022-07-29T06:08:53;14.27;;;4.40;;
59418;SDS011;45224;50.904;6.038;2022-07-29T06:10:24;12.57;;;3.60;;
59418;SDS011;45224;50.904;6.038;2022-07-29T06:11:54;11.40;;;3.53;;
59418;SDS011;45224;50.904;6.038;2022-07-29T06:13:25;14.23;;;3.93;;
59418;SDS011;45224;50.904;6.038;2022-07-29T06:14:56;18.73;;;3.97;;
59418;SDS011;45224;50.904;6.038;2022-07-29T06:16:26;10.13;;;3.92;;
59418;SDS011;45224;50.904;6.038;2022-07-29T06:17:57;12.37;;;3.53;;
59418;SDS011;45224;50.904;6.038;2022-07-29T06:19:27;7.23;;;3.13;;
59418;SDS011;45224;50.904;6.038;2022-07-29T06:20:58;12.63;;;3.92;;
59418;SDS011;45224;50.904;6.038;2022-07-29T06:22:28;13.30;;;3.73;;
59418;SDS011;45224;50.904;6.038;2022-07-29T06:23:59;7.10;;;3.40;;
59418;SDS011;45224;50.904;6.038;2022-07-29T06:25:30;9.95;;;3.50;;
59418;SDS011;45224;50.904;6.038;2022-07-29T06:27:04;17.52;;;3.80;;
59418;SDS011;45224;50.904;6.038;2022-07-29T06:28:35;17.63;;;3.90;;
59418;SDS011;45224;50.904;6.038;2022-07-29T06:30:05;12.40;;;3.70;;
59418;SDS011;45224;50.904;6.038;2022-07-29T06:31:39;12.65;;;4.15;;
59418;SDS011;45224;50.904;6.038;2022-07-29T06:33:09;16.77;;;4.35;;
59418;SDS011;45224;50.904;6.038;2022-07-29T06:34:46;15.60;;;4.45;;
59418;SDS011;45224;50.904;6.038;2022-07-29T06:36:16;8.23;;;3.50;;
59418;SDS011;45224;50.904;6.038;2022-07-29T06:37:47;14.40;;;3.70;;
59418;SDS011;45224;50.904;6.038;2022-07-29T06:39:17;8.33;;;3.63;;
59418;SDS011;45224;50.904;6.038;2022-07-29T06:40:48;12.60;;;3.47;;
59418;SDS011;45224;50.904;6.038;2022-07-29T06:42:35;11.60;;;3.78;;
59418;SDS011;45224;50.904;6.038;2022-07-29T06:44:06;9.77;;;3.97;;
59418;SDS011;45224;50.904;6.038;2022-07-29T06:45:36;6.82;;;3.67;;
59418;SDS011;45224;50.904;6.038;2022-07-29T06:47:10;11.27;;;4.30;;
59418;SDS011;45224;50.904;6.038;2022-07-29T06:48:41;6.37;;;3.50;;
59418;SDS011;45224;50.904;6.038;2022-07-29T06:50:12;13.75;;;3.90;;
59418;SDS011;45224;50.904;6.038;2022-07-29T06:51:44;10.35;;;3.92;;
59418;SDS011;45224;50.904;6.038;2022-07-29T06:53:14;11.33;;;3.90;;
59418;SDS011;45224;50.904;6.038;2022-07-29T06:54:45;9.73;;;3.80;;
59418;SDS011;45224;50.904;6.038;2022-07-29T06:56:18;12.13;;;3.30;;
59418;SDS011;45224;50.904;6.038;2022-07-29T06:57:48;11.67;;;4.50;;
59418;SDS011;45224;50.904;6.038;2022-07-29T06:59:18;12.00;;;4.17;;
59418;SDS011;45224;50.904;6.038;2022-07-29T07:00:49;14.33;;;4.50;;
59418;SDS011;45224;50.904;6.038;2022-07-29T07:02:19;8.30;;;3.80;;
59418;SDS011;45224;50.904;6.038;2022-07-29T07:03:50;8.48;;;3.60;;
59418;SDS011;45224;50.904;6.038;2022-07-29T07:05:20;9.47;;;4.07;;
59418;SDS011;45224;50.904;6.038;2022-07-29T07:06:51;9.68;;;3.90;;
59418;SDS011;45224;50.904;6.038;2022-07-29T07:08:22;12.37;;;3.90;;
59418;SDS011;45224;50.904;6.038;2022-07-29T07:09:53;11.85;;;3.92;;
59418;SDS011;45224;50.904;6.038;2022-07-29T07:11:24;16.17;;;3.50;;
59418;SDS011;45224;50.904;6.038;2022-07-29T07:12:54;12.33;;;3.83;;
59418;SDS011;45224;50.904;6.038;2022-07-29T07:14:25;7.90;;;3.58;;
59418;SDS011;45224;50.904;6.038;2022-07-29T07:15:56;13.35;;;3.45;;
59418;SDS011;45224;50.904;6.038;2022-07-29T07:17:27;12.30;;;3.90;;
59418;SDS011;45224;50.904;6.038;2022-07-29T07:18:57;12.83;;;4.20;;
59418;SDS011;45224;50.904;6.038;2022-07-29T07:20:27;7.47;;;3.38;;
59418;SDS011;45224;50.904;6.038;2022-07-29T07:21:58;6.53;;;3.17;;
59418;SDS011;45224;50.904;6.038;2022-07-29T07:23:28;14.50;;;4.03;;
59418;SDS011;45224;50.904;6.038;2022-07-29T07:24:59;8.52;;;3.42;;
59418;SDS011;45224;50.904;6.038;2022-07-29T07:26:29;10.43;;;3.30;;
59418;SDS011;45224;50.904;6.038;2022-07-29T07:28:00;7.70;;;3.50;;
59418;SDS011;45224;50.904;6.038;2022-07-29T07:29:31;9.15;;;4.10;;
59418;SDS011;45224;50.904;6.038;2022-07-29T07:31:01;6.97;;;3.53;;
59418;SDS011;45224;50.904;6.038;2022-07-29T07:32:34;13.57;;;4.20;;
59418;SDS011;45224;50.904;6.038;2022-07-29T07:34:05;9.18;;;3.67;;
59418;SDS011;45224;50.904;6.038;2022-07-29T07:35:36;7.50;;;3.50;;
59418;SDS011;45224;50.904;6.038;2022-07-29T07:37:06;10.83;;;3.67;;
59418;SDS011;45224;50.904;6.038;2022-07-29T07:38:37;12.53;;;3.53;;
59418;SDS011;45224;50.904;6.038;2022-07-29T07:40:08;16.42;;;3.40;;
59418;SDS011;45224;50.904;6.038;2022-07-29T07:41:41;7.93;;;3.17;;
59418;SDS011;45224;50.904;6.038;2022-07-29T07:43:11;11.20;;;3.40;;
59418;SDS011;45224;50.904;6.038;2022-07-29T07:44:42;7.35;;;3.25;;
59418;SDS011;45224;50.904;6.038;2022-07-29T07:46:13;9.05;;;3.50;;
59418;SDS011;45224;50.904;6.038;2022-07-29T07:49:14;8.57;;;3.30;;
59418;SDS011;45224;50.904;6.038;2022-07-29T07:50:45;7.40;;;3.63;;
59418;SDS011;45224;50.904;6.038;2022-07-29T07:52:16;11.10;;;3.53;;
59418;SDS011;45224;50.904;6.038;2022-07-29T07:53:47;11.70;;;3.50;;
59418;SDS011;45224;50.904;6.038;2022-07-29T07:55:20;14.32;;;3.60;;
59418;SDS011;45224;50.904;6.038;2022-07-29T07:56:50;6.35;;;2.85;;
59418;SDS011;45224;50.904;6.038;2022-07-29T07:58:21;8.57;;;3.30;;
59418;SDS011;45224;50.904;6.038;2022-07-29T07:59:51;9.23;;;3.13;;
59418;SDS011;45224;50.904;6.038;2022-07-29T08:01:22;8.47;;;3.60;;
59418;SDS011;45224;50.904;6.038;2022-07-29T08:02:52;9.50;;;3.10;;
59418;SDS011;45224;50.904;6.038;2022-07-29T08:04:23;12.73;;;3.43;;
59418;SDS011;45224;50.904;6.038;2022-07-29T08:05:54;7.63;;;2.85;;
59418;SDS011;45224;50.904;6.038;2022-07-29T08:07:25;8.00;;;3.00;;
59418;SDS011;45224;50.904;6.038;2022-07-29T08:08:56;8.95;;;2.95;;
59418;SDS011;45224;50.904;6.038;2022-07-29T08:10:26;10.13;;;3.50;;
59418;SDS011;45224;50.904;6.038;2022-07-29T08:12:15;9.45;;;3.65;;
59418;SDS011;45224;50.904;6.038;2022-07-29T08:13:46;9.88;;;3.53;;
59418;SDS011;45224;50.904;6.038;2022-07-29T08:15:17;6.05;;;3.17;;
59418;SDS011;45224;50.904;6.038;2022-07-29T08:16:47;10.40;;;3.05;;
59418;SDS011;45224;50.904;6.038;2022-07-29T08:18:18;10.75;;;3.50;;
59418;SDS011;45224;50.904;6.038;2022-07-29T08:19:48;9.38;;;3.53;;
59418;SDS011;45224;50.904;6.038;2022-07-29T08:21:19;9.73;;;3.65;;
59418;SDS011;45224;50.904;6.038;2022-07-29T08:22:50;11.02;;;3.67;;
59418;SDS011;45224;50.904;6.038;2022-07-29T08:24:21;10.13;;;3.90;;
59418;SDS011;45224;50.904;6.038;2022-07-29T08:26:11;6.68;;;3.28;;
59418;SDS011;45224;50.904;6.038;2022-07-29T08:27:42;9.13;;;3.28;;
59418;SDS011;45224;50.904;6.038;2022-07-29T08:29:12;10.03;;;3.47;;
59418;SDS011;45224;50.904;6.038;2022-07-29T08:30:43;6.88;;;2.97;;
59418;SDS011;45224;50.904;6.038;2022-07-29T08:32:13;9.05;;;2.90;;
59418;SDS011;45224;50.904;6.038;2022-07-29T08:33:44;10.73;;;3.20;;
59418;SDS011;45224;50.904;6.038;2022-07-29T08:35:15;7.75;;;3.40;;
59418;SDS011;45224;50.904;6.038;2022-07-29T08:36:45;13.80;;;3.25;;
59418;SDS011;45224;50.904;6.038;2022-07-29T08:38:16;6.85;;;2.92;;
59418;SDS011;45224;50.904;6.038;2022-07-29T08:39:46;9.32;;;3.30;;
59418;SDS011;45224;50.904;6.038;2022-07-29T08:44:20;10.40;;;3.10;;
59418;SDS011;45224;50.904;6.038;2022-07-29T08:45:51;11.30;;;4.10;;
59418;SDS011;45224;50.904;6.038;2022-07-29T08:47:22;8.13;;;3.88;;
59418;SDS011;45224;50.904;6.038;2022-07-29T08:48:56;7.88;;;3.60;;
59418;SDS011;45224;50.904;6.038;2022-07-29T08:50:26;10.18;;;3.42;;
59418;SDS011;45224;50.904;6.038;2022-07-29T08:51:57;11.82;;;3.30;;
59418;SDS011;45224;50.904;6.038;2022-07-29T08:53:29;9.25;;;3.38;;
59418;SDS011;45224;50.904;6.038;2022-07-29T08:55:00;16.50;;;3.88;;
59418;SDS011;45224;50.904;6.038;2022-07-29T08:56:31;6.88;;;3.35;;
59418;SDS011;45224;50.904;6.038;2022-07-29T08:59:34;5.20;;;3.20;;
59418;SDS011;45224;50.904;6.038;2022-07-29T09:01:07;10.65;;;4.15;;
59418;SDS011;45224;50.904;6.038;2022-07-29T09:02:41;13.50;;;3.58;;
59418;SDS011;45224;50.904;6.038;2022-07-29T09:04:17;11.38;;;3.97;;
59418;SDS011;45224;50.904;6.038;2022-07-29T09:05:49;18.52;;;4.15;;
59418;SDS011;45224;50.904;6.038;2022-07-29T09:07:21;9.25;;;3.92;;
59418;SDS011;45224;50.904;6.038;2022-07-29T09:08:51;18.17;;;4.28;;
59418;SDS011;45224;50.904;6.038;2022-07-29T09:10:22;10.13;;;4.22;;
59418;SDS011;45224;50.904;6.038;2022-07-29T09:11:52;9.55;;;4.18;;
59418;SDS011;45224;50.904;6.038;2022-07-29T09:13:23;12.27;;;4.28;;
59418;SDS011;45224;50.904;6.038;2022-07-29T09:14:54;9.13;;;4.07;;
59418;SDS011;45224;50.904;6.038;2022-07-29T09:16:25;10.23;;;3.87;;
59418;SDS011;45224;50.904;6.038;2022-07-29T09:17:55;10.80;;;4.10;;
59418;SDS011;45224;50.904;6.038;2022-07-29T09:19:32;11.05;;;4.30;;
59418;SDS011;45224;50.904;6.038;2022-07-29T09:21:08;9.95;;;3.95;;
59418;SDS011;45224;50.904;6.038;2022-07-29T09:23:07;8.85;;;4.55;;
59418;SDS011;45224;50.904;6.038;2022-07-29T09:26:08;7.70;;;3.35;;
59418;SDS011;45224;50.904;6.038;2022-07-29T09:27:39;9.82;;;4.30;;
59418;SDS011;45224;50.904;6.038;2022-07-29T09:29:14;8.18;;;4.25;;
59418;SDS011;45224;50.904;6.038;2022-07-29T09:30:52;12.02;;;4.53;;
59418;SDS011;45224;50.904;6.038;2022-07-29T09:32:24;10.77;;;4.32;;
59418;SDS011;45224;50.904;6.038;2022-07-29T09:33:57;12.45;;;4.57;;
59418;SDS011;45224;50.904;6.038;2022-07-29T09:35:28;11.93;;;4.72;;
59418;SDS011;45224;50.904;6.038;2022-07-29T09:37:00;9.10;;;3.95;;